createdAt,value
2017-09-17T00:01:13.049Z,11.60
2017-09-17T00:03:39.229Z,12.07
2017-09-17T00:06:05.449Z,11.30
2017-09-17T00:08:32.383Z,11.63
2017-09-17T00:10:59.309Z,13.00
2017-09-17T00:13:25.628Z,11.63
2017-09-17T00:15:51.797Z,11.30
2017-09-17T00:18:18.804Z,11.80
2017-09-17T00:20:44.978Z,12.13
2017-09-17T00:23:11.356Z,12.33
2017-09-17T00:25:39.384Z,13.10
2017-09-17T00:28:05.588Z,13.40
2017-09-17T00:30:31.792Z,12.23
2017-09-17T00:32:57.984Z,14.40
2017-09-17T00:35:24.219Z,13.87
2017-09-17T00:37:50.429Z,12.47
2017-09-17T00:40:16.638Z,12.87
2017-09-17T00:42:43.570Z,11.80
2017-09-17T00:45:09.778Z,13.30
2017-09-17T00:47:35.962Z,11.93
2017-09-17T00:50:02.358Z,14.03
2017-09-17T00:52:28.522Z,13.10
2017-09-17T00:54:54.758Z,12.60
2017-09-17T00:57:21.006Z,12.27
2017-09-17T00:59:47.195Z,11.63
2017-09-17T01:02:13.837Z,12.37
2017-09-17T01:04:40.058Z,13.03
2017-09-17T01:07:06.975Z,12.40
2017-09-17T01:09:33.208Z,12.73
2017-09-17T01:11:59.528Z,13.10
2017-09-17T01:14:25.748Z,13.30
2017-09-17T01:16:51.929Z,12.40
2017-09-17T01:19:18.143Z,12.93
2017-09-17T01:21:45.075Z,12.03
2017-09-17T01:24:11.250Z,12.90
2017-09-17T01:26:37.455Z,12.63
2017-09-17T01:29:04.471Z,12.37
2017-09-17T01:31:30.739Z,13.57
2017-09-17T01:33:57.127Z,15.67
2017-09-17T01:36:23.314Z,14.20
2017-09-17T01:38:49.499Z,13.80
2017-09-17T01:41:15.731Z,13.50
2017-09-17T01:43:42.681Z,14.53
2017-09-17T01:46:09.618Z,12.33
2017-09-17T01:48:35.818Z,13.40
2017-09-17T01:51:02.056Z,12.63
2017-09-17T01:53:28.295Z,11.47
2017-09-17T01:55:55.240Z,12.33
2017-09-17T01:58:21.519Z,12.13
2017-09-17T02:00:47.747Z,11.80
2017-09-17T02:03:13.968Z,12.10
2017-09-17T02:05:40.176Z,11.63
2017-09-17T02:08:07.140Z,11.63
2017-09-17T02:10:33.318Z,11.77
2017-09-17T02:12:59.553Z,11.50
2017-09-17T02:15:25.726Z,11.13
2017-09-17T02:17:51.937Z,13.43
2017-09-17T02:20:18.874Z,11.70
2017-09-17T02:22:45.810Z,11.03
2017-09-17T02:25:12.036Z,11.43
2017-09-17T02:27:38.251Z,11.80
2017-09-17T02:30:04.436Z,10.90
2017-09-17T02:32:30.639Z,11.60
2017-09-17T02:34:57.559Z,11.30
2017-09-17T02:37:23.794Z,10.10
2017-09-17T02:39:50.016Z,12.53
2017-09-17T02:42:16.274Z,11.23
2017-09-17T02:44:43.206Z,11.00
2017-09-17T02:47:09.393Z,12.00
2017-09-17T02:49:35.647Z,11.13
2017-09-17T02:52:01.855Z,11.10
2017-09-17T02:54:28.079Z,11.10
2017-09-17T02:56:54.267Z,10.23
2017-09-17T02:59:21.211Z,11.57
2017-09-17T03:01:47.422Z,12.00
2017-09-17T03:04:13.663Z,11.17
2017-09-17T03:06:40.610Z,9.63
2017-09-17T03:09:07.531Z,10.60
2017-09-17T03:11:33.742Z,12.20
2017-09-17T03:13:59.956Z,10.13
2017-09-17T03:16:26.123Z,10.73
2017-09-17T03:18:52.351Z,11.40
2017-09-17T03:21:18.549Z,9.87
2017-09-17T03:23:44.743Z,10.57
2017-09-17T03:26:10.960Z,10.73
2017-09-17T03:28:37.176Z,9.30
2017-09-17T03:31:04.114Z,8.87
2017-09-17T03:33:30.360Z,9.53
2017-09-17T03:35:56.550Z,10.07
2017-09-17T03:38:22.721Z,10.03
2017-09-17T03:40:49.700Z,10.33
2017-09-17T03:43:15.860Z,10.80
2017-09-17T03:45:42.080Z,9.40
2017-09-17T03:48:08.311Z,9.30
2017-09-17T03:50:34.512Z,10.53
2017-09-17T03:53:00.872Z,10.03
2017-09-17T03:55:27.072Z,9.73
2017-09-17T03:57:53.262Z,10.80
2017-09-17T04:00:20.210Z,10.40
2017-09-17T04:02:47.221Z,10.20
2017-09-17T04:05:13.387Z,9.20
2017-09-17T04:07:39.618Z,11.23
2017-09-17T04:10:05.850Z,9.47
2017-09-17T04:12:32.051Z,9.67
2017-09-17T04:14:58.263Z,11.27
2017-09-17T04:17:24.466Z,10.00
2017-09-17T04:19:50.719Z,9.83
2017-09-17T04:22:16.982Z,9.70
2017-09-17T04:24:43.973Z,10.77
2017-09-17T04:27:10.195Z,9.40
2017-09-17T04:29:36.387Z,8.60
2017-09-17T04:32:02.629Z,9.93
2017-09-17T04:34:28.847Z,8.37
2017-09-17T04:36:55.047Z,10.33
2017-09-17T04:39:21.284Z,9.00
2017-09-17T04:41:47.519Z,8.60
2017-09-17T04:44:14.465Z,9.53
2017-09-17T04:46:41.427Z,8.97
2017-09-17T04:49:08.372Z,8.00
2017-09-17T04:51:34.592Z,10.13
2017-09-17T04:54:01.539Z,9.30
2017-09-17T04:56:27.738Z,9.60
2017-09-17T04:58:53.986Z,12.00
2017-09-17T05:01:20.944Z,10.80
2017-09-17T05:03:47.174Z,11.40
2017-09-17T05:06:13.447Z,10.33
2017-09-17T05:08:39.638Z,10.00
2017-09-17T05:11:05.870Z,10.63
2017-09-17T05:13:32.087Z,9.87
2017-09-17T05:15:59.123Z,10.60
2017-09-17T05:18:26.149Z,11.23
2017-09-17T05:20:52.349Z,9.97
2017-09-17T05:23:18.560Z,11.47
2017-09-17T05:25:44.825Z,11.00
2017-09-17T05:28:11.056Z,10.63
2017-09-17T05:30:37.265Z,10.17
2017-09-17T05:33:03.576Z,10.37
2017-09-17T05:35:29.763Z,11.07
2017-09-17T05:37:56.027Z,10.20
2017-09-17T05:40:22.425Z,11.43
2017-09-17T05:42:48.654Z,10.80
2017-09-17T05:45:14.939Z,11.63
2017-09-17T05:47:41.211Z,10.20
2017-09-17T05:50:07.425Z,11.00
2017-09-17T05:52:33.686Z,9.87
2017-09-17T05:55:00.685Z,9.53
2017-09-17T05:57:26.875Z,8.73
2017-09-17T05:59:53.822Z,9.70
2017-09-17T06:02:20.040Z,8.97
2017-09-17T06:04:47.042Z,7.60
2017-09-17T06:07:13.257Z,9.03
2017-09-17T06:09:39.468Z,8.40
2017-09-17T06:12:05.684Z,8.00
2017-09-17T06:14:31.904Z,8.10
2017-09-17T06:16:58.884Z,7.03
2017-09-17T06:19:25.112Z,8.00
2017-09-17T06:21:51.331Z,8.37
2017-09-17T06:24:17.602Z,7.53
2017-09-17T06:26:43.839Z,7.40
2017-09-17T06:29:10.032Z,8.07
2017-09-17T06:31:36.284Z,8.30
2017-09-17T06:34:02.492Z,7.83
2017-09-17T06:36:28.706Z,7.07
2017-09-17T06:38:54.932Z,7.90
2017-09-17T06:41:21.132Z,9.50
2017-09-17T06:43:48.080Z,7.93
2017-09-17T06:46:15.124Z,7.87
2017-09-17T06:48:42.172Z,6.87
2017-09-17T06:51:09.089Z,6.63
2017-09-17T06:53:35.409Z,7.00
2017-09-17T06:56:01.855Z,7.07
2017-09-17T06:58:28.050Z,7.37
2017-09-17T07:00:54.293Z,6.80
2017-09-17T07:03:20.503Z,6.57
2017-09-17T07:05:46.793Z,6.60
2017-09-17T07:08:13.763Z,6.63
2017-09-17T07:10:39.969Z,6.80
2017-09-17T07:13:07.863Z,8.03
2017-09-17T07:15:34.058Z,6.00
2017-09-17T07:18:00.237Z,5.53
2017-09-17T07:20:26.446Z,5.93
2017-09-17T07:22:52.646Z,4.77
2017-09-17T07:25:18.843Z,5.63
2017-09-17T07:27:45.051Z,4.73
2017-09-17T07:30:11.247Z,5.23
2017-09-17T07:32:37.473Z,5.43
2017-09-17T07:35:03.683Z,5.17
2017-09-17T07:37:30.621Z,4.60
2017-09-17T07:39:56.869Z,5.10
2017-09-17T07:42:23.836Z,4.50
2017-09-17T07:44:50.022Z,4.10
2017-09-17T07:47:16.255Z,4.57
2017-09-17T07:49:42.478Z,4.53
2017-09-17T07:52:08.712Z,4.37
2017-09-17T07:54:35.002Z,5.23
2017-09-17T07:57:01.316Z,5.73
2017-09-17T07:59:27.520Z,5.20
2017-09-17T08:01:54.465Z,6.20
2017-09-17T08:04:21.466Z,6.30
2017-09-17T08:06:47.735Z,6.03
2017-09-17T08:09:14.726Z,5.70
2017-09-17T08:11:40.977Z,5.90
2017-09-17T08:14:07.225Z,4.53
2017-09-17T08:16:33.435Z,6.37
2017-09-17T08:18:59.619Z,5.27
2017-09-17T08:21:25.817Z,5.90
2017-09-17T08:23:52.071Z,6.67
2017-09-17T08:26:18.285Z,6.00
2017-09-17T08:28:45.231Z,5.80
2017-09-17T08:31:12.179Z,6.40
2017-09-17T08:33:39.111Z,6.87
2017-09-17T08:36:06.143Z,6.17
2017-09-17T08:38:32.372Z,6.10
2017-09-17T08:40:58.559Z,6.63
2017-09-17T08:43:24.735Z,6.80
2017-09-17T08:45:50.883Z,5.30
2017-09-17T08:48:17.798Z,6.20
2017-09-17T08:50:43.964Z,5.80
2017-09-17T08:53:10.873Z,4.80
2017-09-17T08:55:37.076Z,6.10
2017-09-17T08:58:03.248Z,4.80
2017-09-17T09:00:30.172Z,5.87
2017-09-17T09:02:56.328Z,5.70
2017-09-17T09:05:23.220Z,5.90
2017-09-17T09:07:49.842Z,5.80
2017-09-17T09:10:16.024Z,5.13
2017-09-17T09:12:42.198Z,5.83
2017-09-17T09:15:08.370Z,4.87
2017-09-17T09:17:34.562Z,4.67
2017-09-17T09:20:00.759Z,5.23
2017-09-17T09:22:27.698Z,4.47
2017-09-17T09:24:54.616Z,5.93
2017-09-17T09:27:20.818Z,5.17
2017-09-17T09:29:46.985Z,5.43
2017-09-17T09:32:13.187Z,6.17
2017-09-17T09:34:39.415Z,5.43
2017-09-17T09:37:05.587Z,5.73
2017-09-17T09:39:32.516Z,5.03
2017-09-17T09:41:59.419Z,5.23
2017-09-17T09:44:25.655Z,5.30
2017-09-17T09:46:51.823Z,5.77
2017-09-17T09:49:18.730Z,4.87
2017-09-17T09:51:45.001Z,4.70
2017-09-17T09:54:11.923Z,5.13
2017-09-17T09:56:38.127Z,4.53
2017-09-17T09:59:04.363Z,4.10
2017-09-17T10:01:30.612Z,4.17
2017-09-17T10:03:56.844Z,5.03
2017-09-17T10:06:23.064Z,4.87
2017-09-17T10:08:49.284Z,5.70
2017-09-17T10:11:15.536Z,4.87
2017-09-17T10:13:41.803Z,5.00
2017-09-17T10:16:07.991Z,4.43
2017-09-17T10:18:34.996Z,4.50
2017-09-17T10:21:01.192Z,3.67
2017-09-17T10:23:28.113Z,4.10
2017-09-17T10:25:54.339Z,3.40
2017-09-17T10:28:21.268Z,3.10
2017-09-17T10:30:47.462Z,3.47
2017-09-17T10:33:13.663Z,4.10
2017-09-17T10:35:40.582Z,3.43
2017-09-17T10:38:06.789Z,2.73
2017-09-17T10:40:33.059Z,2.73
2017-09-17T10:42:59.998Z,2.30
2017-09-17T10:45:26.949Z,2.70
2017-09-17T10:47:53.880Z,3.80
2017-09-17T10:50:20.079Z,2.80
2017-09-17T10:52:46.267Z,3.47
2017-09-17T10:55:12.483Z,3.20
2017-09-17T10:57:38.718Z,2.30
2017-09-17T11:00:05.644Z,2.67
2017-09-17T11:02:32.689Z,3.00
2017-09-17T11:04:58.909Z,1.87
2017-09-17T11:07:25.129Z,2.20
2017-09-17T11:09:51.951Z,2.20
2017-09-17T11:12:18.209Z,2.20
2017-09-17T11:14:44.421Z,2.33
2017-09-17T11:17:11.559Z,2.40
2017-09-17T11:19:37.777Z,1.47
2017-09-17T11:22:04.013Z,1.63
2017-09-17T11:24:30.271Z,1.33
2017-09-17T11:26:56.441Z,1.43
2017-09-17T11:29:22.628Z,1.10
2017-09-17T11:31:48.850Z,1.50
2017-09-17T11:34:15.038Z,1.50
2017-09-17T11:36:41.315Z,1.10
2017-09-17T11:39:07.523Z,1.37
2017-09-17T11:41:33.731Z,1.23
2017-09-17T11:43:59.937Z,1.50
2017-09-17T11:46:26.110Z,1.20
2017-09-17T11:48:52.294Z,1.50
2017-09-17T11:51:18.517Z,1.57
2017-09-17T11:53:44.761Z,1.67
2017-09-17T11:56:10.974Z,1.80
2017-09-17T11:58:37.316Z,2.47
2017-09-17T12:01:03.544Z,1.97
2017-09-17T12:03:29.772Z,5.07
2017-09-17T12:05:55.954Z,1.30
2017-09-17T12:08:23.642Z,1.93
2017-09-17T12:10:51.011Z,2.37
2017-09-17T12:13:17.222Z,1.20
2017-09-17T12:15:44.183Z,1.40
2017-09-17T12:18:17.440Z,1.40
2017-09-17T12:20:43.771Z,1.93
2017-09-17T12:23:09.998Z,1.40
2017-09-17T12:25:36.236Z,1.70
2017-09-17T12:28:02.556Z,1.43
2017-09-17T12:30:28.722Z,1.80
2017-09-17T12:32:55.674Z,1.17
2017-09-17T12:35:21.919Z,1.23
2017-09-17T12:37:48.091Z,1.20
2017-09-17T12:40:15.092Z,1.23
2017-09-17T12:42:41.277Z,2.13
2017-09-17T12:45:07.491Z,0.93
2017-09-17T12:47:33.748Z,1.17
2017-09-17T12:50:00.711Z,1.20
2017-09-17T12:52:26.907Z,1.00
2017-09-17T12:54:53.126Z,1.13
2017-09-17T12:57:20.562Z,1.60
2017-09-17T12:59:46.793Z,1.20
2017-09-17T13:02:13.027Z,1.10
2017-09-17T13:04:39.208Z,0.93
2017-09-17T13:07:05.433Z,0.87
2017-09-17T13:09:32.428Z,1.10
2017-09-17T13:11:58.593Z,1.00
2017-09-17T13:14:25.536Z,1.70
2017-09-17T13:16:52.499Z,1.23
2017-09-17T13:19:19.444Z,1.40
2017-09-17T13:21:46.390Z,1.27
2017-09-17T13:24:13.388Z,1.23
2017-09-17T13:26:39.584Z,1.40
2017-09-17T13:29:05.832Z,1.33
2017-09-17T13:31:32.098Z,1.10
2017-09-17T13:33:59.014Z,1.00
2017-09-17T13:36:25.408Z,1.40
2017-09-17T13:38:51.620Z,0.90
2017-09-17T13:41:19.050Z,0.93
2017-09-17T13:43:45.234Z,1.07
2017-09-17T13:46:11.437Z,1.23
2017-09-17T13:48:38.807Z,1.27
2017-09-17T13:51:05.027Z,1.20
2017-09-17T13:53:31.967Z,1.27
2017-09-17T13:55:58.928Z,1.00
2017-09-17T13:58:25.143Z,1.10
2017-09-17T14:00:52.080Z,1.23
2017-09-17T14:03:19.939Z,1.10
2017-09-17T14:05:47.132Z,1.03
2017-09-17T14:08:13.308Z,0.90
2017-09-17T14:10:41.380Z,0.93
2017-09-17T14:13:07.568Z,0.97
2017-09-17T14:15:33.738Z,1.20
2017-09-17T14:17:59.980Z,1.20
2017-09-17T14:20:26.910Z,1.00
2017-09-17T14:22:53.106Z,1.30
2017-09-17T14:25:19.300Z,1.60
2017-09-17T14:27:45.519Z,0.93
2017-09-17T14:30:12.471Z,0.90
2017-09-17T14:32:46.508Z,1.30
2017-09-17T14:35:12.696Z,0.83
2017-09-17T14:37:39.664Z,1.00
2017-09-17T14:40:05.882Z,1.07
2017-09-17T14:42:32.826Z,1.00
2017-09-17T14:44:59.747Z,1.00
2017-09-17T14:47:25.942Z,0.87
2017-09-17T14:49:52.138Z,0.67
2017-09-17T14:52:18.362Z,0.87
2017-09-17T14:54:44.562Z,0.83
2017-09-17T14:57:10.768Z,0.73
2017-09-17T14:59:36.954Z,0.80
2017-09-17T15:02:03.173Z,0.93
2017-09-17T15:04:31.914Z,0.67
2017-09-17T15:06:58.097Z,0.90
2017-09-17T15:09:24.333Z,0.90
2017-09-17T15:11:50.529Z,1.03
2017-09-17T15:14:17.546Z,1.20
2017-09-17T15:16:43.766Z,1.23
2017-09-17T15:19:09.995Z,1.10
2017-09-17T15:21:36.249Z,1.07
2017-09-17T15:24:02.520Z,0.93
2017-09-17T15:26:28.723Z,1.10
2017-09-17T15:28:55.660Z,0.90
2017-09-17T15:31:21.881Z,2.70
2017-09-17T15:33:48.117Z,1.03
2017-09-17T15:36:14.375Z,1.33
2017-09-17T15:38:40.595Z,0.90
2017-09-17T15:41:07.519Z,0.90
2017-09-17T15:43:33.742Z,2.90
2017-09-17T15:45:59.980Z,3.53
2017-09-17T15:48:26.899Z,1.10
2017-09-17T15:50:53.090Z,4.70
2017-09-17T15:53:19.326Z,2.93
2017-09-17T15:55:46.054Z,1.10
2017-09-17T15:58:12.254Z,1.10
2017-09-17T16:00:38.478Z,1.20
2017-09-17T16:03:04.682Z,1.13
2017-09-17T16:05:30.858Z,1.20
2017-09-17T16:07:57.089Z,1.00
2017-09-17T16:10:23.307Z,1.13
2017-09-17T16:12:50.260Z,1.60
2017-09-17T16:15:16.484Z,2.17
2017-09-17T16:17:43.462Z,1.33
2017-09-17T16:20:09.671Z,2.17
2017-09-17T16:22:35.865Z,1.70
2017-09-17T16:25:02.071Z,1.10
2017-09-17T16:27:28.300Z,1.37
2017-09-17T16:29:54.706Z,1.33
2017-09-17T16:32:20.998Z,1.87
2017-09-17T16:34:48.005Z,2.10
2017-09-17T16:37:14.195Z,1.47
2017-09-17T16:39:40.396Z,1.83
2017-09-17T16:42:07.519Z,1.23
2017-09-17T16:44:33.719Z,1.10
2017-09-17T16:46:59.925Z,1.30
2017-09-17T16:49:26.170Z,1.40
2017-09-17T16:51:52.360Z,1.53
2017-09-17T16:54:18.587Z,1.90
2017-09-17T16:56:44.791Z,1.97
2017-09-17T16:59:11.271Z,1.93
2017-09-17T17:01:37.453Z,1.77
2017-09-17T17:04:03.629Z,2.50
2017-09-17T17:06:29.805Z,2.47
2017-09-17T17:08:55.979Z,2.40
2017-09-17T17:11:22.937Z,3.10
2017-09-17T17:13:49.167Z,3.50
2017-09-17T17:16:15.332Z,2.70
2017-09-17T17:18:41.511Z,2.63
2017-09-17T17:21:07.900Z,3.00
2017-09-17T17:23:34.083Z,3.07
2017-09-17T17:26:00.289Z,3.83
2017-09-17T17:28:27.252Z,3.90
2017-09-17T17:30:53.448Z,4.47
2017-09-17T17:33:20.328Z,6.50
2017-09-17T17:35:46.536Z,6.87
2017-09-17T17:38:13.498Z,5.17
2017-09-17T17:40:39.759Z,5.93
2017-09-17T17:43:06.940Z,6.73
2017-09-17T17:45:33.169Z,8.73
2017-09-17T17:47:59.416Z,8.50
2017-09-17T17:50:26.547Z,8.80
2017-09-17T17:52:52.804Z,9.20
2017-09-17T17:55:19.772Z,8.20
2017-09-17T17:57:46.032Z,16.57
2017-09-17T18:00:12.293Z,24.47
2017-09-17T18:02:39.231Z,20.03
2017-09-17T18:05:06.977Z,15.10
2017-09-17T18:07:33.198Z,7.90
2017-09-17T18:09:59.470Z,7.77
2017-09-17T18:12:26.463Z,5.70
2017-09-17T18:14:52.738Z,5.23
2017-09-17T18:17:19.722Z,4.00
2017-09-17T18:19:45.930Z,4.47
2017-09-17T18:22:13.237Z,4.50
2017-09-17T18:24:39.482Z,3.23
2017-09-17T18:27:06.421Z,4.53
2017-09-17T18:29:32.716Z,4.37
2017-09-17T18:31:58.954Z,6.23
2017-09-17T18:34:25.218Z,6.50
2017-09-17T18:36:51.481Z,3.30
2017-09-17T18:39:18.442Z,2.70
2017-09-17T18:41:44.715Z,3.50
2017-09-17T18:44:10.922Z,3.40
2017-09-17T18:46:37.180Z,4.30
2017-09-17T18:49:03.415Z,4.40
2017-09-17T18:51:29.630Z,4.60
2017-09-17T18:53:55.849Z,4.50
2017-09-17T18:56:22.125Z,4.93
2017-09-17T18:58:49.091Z,4.20
2017-09-17T19:01:15.345Z,3.90
2017-09-17T19:03:41.544Z,4.23
2017-09-17T19:06:07.801Z,4.80
2017-09-17T19:08:34.390Z,4.03
2017-09-17T19:11:01.349Z,4.43
2017-09-17T19:13:28.307Z,3.87
2017-09-17T19:15:54.586Z,4.93
2017-09-17T19:18:20.870Z,5.03
2017-09-17T19:20:47.132Z,3.63
2017-09-17T19:23:13.400Z,3.83
2017-09-17T19:25:39.608Z,3.60
2017-09-17T19:28:05.871Z,3.57
2017-09-17T19:30:32.172Z,3.13
2017-09-17T19:32:58.413Z,3.40
2017-09-17T19:35:25.737Z,2.90
2017-09-17T19:37:51.953Z,3.13
2017-09-17T19:40:18.173Z,2.87
2017-09-17T19:42:44.971Z,2.50
2017-09-17T19:45:11.912Z,2.20
2017-09-17T19:47:39.540Z,2.23
2017-09-17T19:50:05.761Z,2.30
2017-09-17T19:52:32.018Z,2.33
2017-09-17T19:54:58.263Z,2.50
2017-09-17T19:57:25.296Z,2.17
2017-09-17T19:59:51.507Z,2.20
2017-09-17T20:02:17.720Z,2.40
2017-09-17T20:04:43.932Z,2.47
2017-09-17T20:07:10.121Z,2.20
2017-09-17T20:09:37.098Z,2.33
2017-09-17T20:12:03.306Z,1.70
2017-09-17T20:14:30.240Z,1.60
2017-09-17T20:16:57.198Z,2.00
2017-09-17T20:19:24.165Z,1.43
2017-09-17T20:21:50.402Z,2.10
2017-09-17T20:24:16.634Z,1.97
2017-09-17T20:26:42.831Z,1.40
2017-09-17T20:29:09.784Z,1.40
2017-09-17T20:31:36.709Z,1.60
2017-09-17T20:34:03.672Z,1.30
2017-09-17T20:36:30.597Z,1.60
2017-09-17T20:38:57.556Z,1.33
2017-09-17T20:41:24.537Z,2.40
2017-09-17T20:43:50.733Z,1.40
2017-09-17T20:46:17.667Z,1.50
2017-09-17T20:48:44.607Z,2.87
2017-09-17T20:51:11.596Z,1.83
2017-09-17T20:53:37.809Z,3.70
2017-09-17T20:56:04.879Z,10.40
2017-09-17T20:58:31.108Z,4.73
2017-09-17T21:00:57.284Z,11.30
2017-09-17T21:03:23.490Z,1.83
2017-09-17T21:05:49.928Z,20.20
2017-09-17T21:08:16.151Z,2.77
2017-09-17T21:10:42.323Z,6.40
2017-09-17T21:13:09.339Z,2.80
2017-09-17T21:15:35.567Z,5.73
2017-09-17T21:18:01.779Z,3.47
2017-09-17T21:20:27.981Z,8.57
2017-09-17T21:22:54.137Z,3.13
2017-09-17T21:25:20.301Z,2.10
2017-09-17T21:27:47.252Z,2.27
2017-09-17T21:30:14.188Z,2.80
2017-09-17T21:32:40.446Z,2.13
2017-09-17T21:35:07.348Z,2.07
2017-09-17T21:37:33.557Z,2.70
2017-09-17T21:39:59.809Z,2.57
2017-09-17T21:42:26.013Z,2.47
2017-09-17T21:44:52.240Z,2.90
2017-09-17T21:47:18.462Z,2.23
2017-09-17T21:49:44.673Z,2.40
2017-09-17T21:52:10.903Z,3.17
2017-09-17T21:54:37.112Z,2.30
2017-09-17T21:57:03.300Z,2.13
2017-09-17T21:59:31.000Z,3.30
2017-09-17T22:01:57.196Z,2.03
2017-09-17T22:04:23.419Z,2.00
2017-09-17T22:06:50.344Z,2.47
2017-09-17T22:09:16.594Z,2.47
2017-09-17T22:11:42.820Z,2.23
2017-09-17T22:14:08.985Z,1.93
2017-09-17T22:16:35.908Z,2.03
2017-09-17T22:19:03.599Z,2.90
2017-09-17T22:21:29.795Z,2.47
2017-09-17T22:23:56.023Z,2.53
2017-09-17T22:26:22.231Z,1.90
2017-09-17T22:28:48.395Z,2.30
2017-09-17T22:31:15.351Z,2.77
2017-09-17T22:33:42.299Z,2.10
2017-09-17T22:36:09.207Z,2.40
2017-09-17T22:38:35.396Z,2.13
2017-09-17T22:41:01.574Z,2.70
2017-09-17T22:43:27.744Z,1.60
2017-09-17T22:45:53.912Z,1.60
2017-09-17T22:48:20.162Z,1.70
2017-09-17T22:50:46.331Z,2.77
2017-09-17T22:53:12.520Z,1.90
2017-09-17T22:55:39.464Z,1.90
2017-09-17T22:58:06.397Z,2.00
2017-09-17T23:00:32.600Z,1.90
2017-09-17T23:02:58.764Z,1.97
2017-09-17T23:05:25.690Z,1.33
2017-09-17T23:07:51.916Z,1.40
2017-09-17T23:10:18.156Z,1.57
2017-09-17T23:12:44.351Z,1.30
2017-09-17T23:15:10.562Z,1.20
2017-09-17T23:17:36.740Z,1.20
2017-09-17T23:20:02.958Z,1.47
2017-09-17T23:22:29.210Z,0.80
2017-09-17T23:24:56.169Z,1.43
2017-09-17T23:27:23.054Z,1.70
2017-09-17T23:29:49.239Z,1.23
2017-09-17T23:32:16.163Z,1.47
2017-09-17T23:34:42.335Z,1.57
2017-09-17T23:37:08.525Z,1.30
2017-09-17T23:39:35.477Z,1.57
2017-09-17T23:42:02.397Z,1.50
2017-09-17T23:44:28.603Z,1.47
2017-09-17T23:46:54.805Z,1.67
2017-09-17T23:49:20.979Z,1.30
2017-09-17T23:51:47.157Z,1.77
2017-09-17T23:54:13.342Z,1.07
2017-09-17T23:56:39.511Z,1.53
2017-09-17T23:59:06.453Z,1.33
